createdAt,value
2022-10-18T00:02:14.393Z,87.88
2022-10-18T00:05:16.541Z,87.03
2022-10-18T00:08:19.701Z,89.29
2022-10-18T00:11:21.674Z,89.89
2022-10-18T00:14:23.962Z,89.66
2022-10-18T00:17:26.001Z,88.00
2022-10-18T00:20:28.497Z,89.58
2022-10-18T00:23:31.768Z,88.92
2022-10-18T00:26:34.087Z,91.55
2022-10-18T00:29:36.060Z,92.31
2022-10-18T00:32:40.159Z,92.15
2022-10-18T00:35:42.490Z,89.95
2022-10-18T00:38:45.734Z,93.83
2022-10-18T00:41:48.713Z,96.47
2022-10-18T00:44:50.887Z,94.76
2022-10-18T00:48:00.791Z,95.31
2022-10-18T00:51:03.174Z,94.66
2022-10-18T00:54:05.184Z,96.36
2022-10-18T00:57:07.850Z,96.57
2022-10-18T01:00:10.499Z,96.89
2022-10-18T01:03:12.758Z,96.68
2022-10-18T01:06:14.743Z,96.72
2022-10-18T01:09:42.040Z,95.25
2022-10-18T01:12:47.920Z,94.63
2022-10-18T01:16:12.713Z,95.38
2022-10-18T01:19:33.086Z,95.15
2022-10-18T01:22:39.733Z,94.53
2022-10-18T01:25:57.616Z,94.34
2022-10-18T01:29:18.601Z,94.65
2022-10-18T01:32:24.037Z,95.08
2022-10-18T01:35:43.147Z,93.43
2022-10-18T01:38:47.683Z,93.20
2022-10-18T01:41:51.377Z,92.94
2022-10-18T01:44:54.288Z,93.48
2022-10-18T01:47:57.264Z,92.19
2022-10-18T01:50:59.414Z,91.77
2022-10-18T01:54:02.066Z,91.86
2022-10-18T01:57:26.449Z,91.33
2022-10-18T02:00:47.962Z,91.25
2022-10-18T02:03:51.349Z,90.46
2022-10-18T02:07:01.019Z,89.97
2022-10-18T02:10:16.075Z,89.99
2022-10-18T02:13:21.358Z,89.04
2022-10-18T02:16:27.114Z,90.12
2022-10-18T02:19:35.147Z,89.99
2022-10-18T02:22:38.174Z,89.72
2022-10-18T02:25:40.461Z,88.79
2022-10-18T02:28:42.814Z,89.12
2022-10-18T02:31:50.179Z,88.30
2022-10-18T02:34:59.288Z,87.87
2022-10-18T02:38:03.047Z,87.79
2022-10-18T02:41:05.193Z,87.95
2022-10-18T02:44:07.434Z,88.07
2022-10-18T02:47:10.654Z,87.54
2022-10-18T02:50:13.346Z,87.10
2022-10-18T02:53:15.381Z,86.93
2022-10-18T02:56:17.536Z,87.36
2022-10-18T02:59:19.736Z,86.70
2022-10-18T03:02:22.278Z,86.96
2022-10-18T03:05:24.388Z,87.71
2022-10-18T03:08:26.856Z,87.74
2022-10-18T03:11:28.860Z,87.59
2022-10-18T03:14:31.092Z,87.53
2022-10-18T03:17:33.439Z,87.10
2022-10-18T03:20:35.948Z,87.92
2022-10-18T03:23:37.988Z,87.58
2022-10-18T03:26:40.342Z,87.93
2022-10-18T03:29:42.314Z,88.47
2022-10-18T03:32:44.543Z,88.34
2022-10-18T03:35:46.614Z,87.81
2022-10-18T03:38:48.906Z,88.34
2022-10-18T03:41:51.099Z,87.93
2022-10-18T03:44:53.452Z,88.00
2022-10-18T03:47:55.434Z,87.55
2022-10-18T03:50:57.805Z,87.27
2022-10-18T03:53:59.848Z,87.75
2022-10-18T03:57:02.045Z,87.79
2022-10-18T04:00:04.848Z,87.79
2022-10-18T04:03:14.027Z,87.38
2022-10-18T04:06:16.166Z,88.01
2022-10-18T04:09:18.713Z,88.21
2022-10-18T04:12:20.855Z,88.56
2022-10-18T04:15:23.465Z,89.03
2022-10-18T04:18:25.442Z,87.98
2022-10-18T04:21:28.124Z,88.38
2022-10-18T04:24:30.441Z,88.45
2022-10-18T04:27:33.010Z,90.19
2022-10-18T04:30:35.519Z,89.35
2022-10-18T04:33:38.253Z,89.38
2022-10-18T04:36:41.024Z,89.16
2022-10-18T04:39:49.847Z,89.46
2022-10-18T04:42:54.766Z,89.21
2022-10-18T04:45:57.164Z,90.83
2022-10-18T04:49:01.196Z,90.71
2022-10-18T04:52:04.259Z,89.64
2022-10-18T04:55:06.744Z,89.98
2022-10-18T04:58:08.969Z,89.65
2022-10-18T05:01:11.368Z,88.53
2022-10-18T05:04:13.812Z,88.75
2022-10-18T05:07:15.897Z,88.58
2022-10-18T05:10:18.198Z,88.24
2022-10-18T05:13:20.218Z,88.26
2022-10-18T05:16:22.682Z,87.86
2022-10-18T05:19:24.719Z,87.47
2022-10-18T05:22:27.092Z,88.55
2022-10-18T05:25:30.251Z,88.57
2022-10-18T05:28:39.735Z,88.66
2022-10-18T05:31:42.706Z,87.86
2022-10-18T05:34:44.988Z,88.71
2022-10-18T05:37:47.150Z,88.89
2022-10-18T05:40:49.610Z,89.28
2022-10-18T05:43:52.053Z,90.38
2022-10-18T05:46:54.375Z,90.14
2022-10-18T05:49:56.492Z,90.54
2022-10-18T05:53:06.957Z,90.69
2022-10-18T05:56:15.021Z,90.58
2022-10-18T05:59:17.211Z,90.34
2022-10-18T06:02:19.535Z,90.88
2022-10-18T06:05:21.937Z,90.93
2022-10-18T06:08:23.961Z,90.95
2022-10-18T06:11:26.485Z,93.46
2022-10-18T06:14:28.614Z,92.74
2022-10-18T06:17:32.589Z,93.49
2022-10-18T06:20:34.937Z,93.88
2022-10-18T06:23:37.654Z,94.33
2022-10-18T06:26:39.745Z,92.96
2022-10-18T06:29:42.017Z,92.00
2022-10-18T06:32:44.030Z,92.67
2022-10-18T06:36:00.612Z,92.79
2022-10-18T06:39:02.689Z,92.66
2022-10-18T06:42:04.981Z,92.50
2022-10-18T06:45:10.237Z,92.65
2022-10-18T06:48:12.710Z,92.13
2022-10-18T06:51:15.527Z,92.61
2022-10-18T06:54:18.935Z,92.13
2022-10-18T06:57:21.849Z,91.42
2022-10-18T07:00:24.116Z,91.57
2022-10-18T07:03:26.350Z,91.01
2022-10-18T07:06:28.669Z,91.16
2022-10-18T07:09:30.798Z,90.82
2022-10-18T07:12:33.667Z,90.45
2022-10-18T07:15:38.613Z,89.88
2022-10-18T07:18:48.521Z,90.05
2022-10-18T07:21:50.503Z,89.76
2022-10-18T07:24:52.834Z,89.17
2022-10-18T07:27:54.825Z,88.78
2022-10-18T07:30:57.153Z,89.07
2022-10-18T07:33:59.208Z,88.84
2022-10-18T07:37:02.203Z,88.07
2022-10-18T07:40:04.642Z,88.24
2022-10-18T07:43:10.258Z,88.04
2022-10-18T07:46:15.408Z,87.01
2022-10-18T07:49:18.147Z,86.50
2022-10-18T07:52:20.135Z,86.47
2022-10-18T07:55:22.430Z,86.13
2022-10-18T07:58:24.624Z,85.63
2022-10-18T08:01:27.002Z,85.80
2022-10-18T08:04:29.039Z,85.03
2022-10-18T08:07:33.354Z,81.68
2022-10-18T08:10:36.256Z,82.43
2022-10-18T08:13:38.619Z,82.30
2022-10-18T08:16:40.612Z,81.59
2022-10-18T08:19:52.817Z,81.45
2022-10-18T08:23:05.205Z,80.93
2022-10-18T08:26:10.599Z,80.66
2022-10-18T08:29:31.645Z,79.40
2022-10-18T08:32:34.553Z,79.71
2022-10-18T08:35:37.013Z,79.29
2022-10-18T08:38:40.795Z,78.87
2022-10-18T08:42:10.731Z,78.62
2022-10-18T08:45:30.228Z,78.19
2022-10-18T08:48:44.796Z,78.85
2022-10-18T08:51:49.502Z,79.77
2022-10-18T08:55:05.332Z,79.29
2022-10-18T08:58:27.430Z,78.17
2022-10-18T09:05:01.203Z,78.07
2022-10-18T09:08:40.481Z,77.37
2022-10-18T09:11:51.866Z,77.51
2022-10-18T09:15:25.207Z,76.70
2022-10-18T09:18:30.578Z,76.45
2022-10-18T09:21:52.883Z,75.49
2022-10-18T09:25:03.483Z,77.23
2022-10-18T09:28:08.501Z,75.06
2022-10-18T09:31:41.690Z,75.09
2022-10-18T09:34:53.645Z,74.79
2022-10-18T09:38:05.035Z,72.02
2022-10-18T09:41:58.340Z,73.47
2022-10-18T09:45:23.107Z,70.49
2022-10-18T09:48:31.552Z,69.70
2022-10-18T09:51:39.258Z,70.79
2022-10-18T09:54:49.558Z,71.18
2022-10-18T09:57:55.912Z,69.97
2022-10-18T10:00:58.230Z,68.97
2022-10-18T10:04:00.492Z,68.51
2022-10-18T10:07:02.780Z,68.08
2022-10-18T10:10:08.604Z,68.59
2022-10-18T10:13:29.280Z,68.80
2022-10-18T10:16:31.535Z,68.38
2022-10-18T10:19:37.496Z,69.42
2022-10-18T10:22:40.858Z,69.01
2022-10-18T10:25:43.024Z,68.81
2022-10-18T10:28:48.694Z,68.51
2022-10-18T10:32:04.528Z,68.33
2022-10-18T10:35:42.107Z,68.83
2022-10-18T10:39:11.227Z,68.01
2022-10-18T10:42:13.655Z,69.06
2022-10-18T10:45:15.771Z,69.85
2022-10-18T10:48:19.671Z,69.65
2022-10-18T10:51:34.091Z,68.53
2022-10-18T10:54:39.118Z,69.33
2022-10-18T10:57:45.129Z,69.53
2022-10-18T11:00:47.325Z,69.81
2022-10-18T11:03:52.258Z,69.63
2022-10-18T11:07:11.388Z,69.33
2022-10-18T11:10:23.176Z,69.81
2022-10-18T11:13:45.601Z,69.79
2022-10-18T11:16:52.288Z,70.59
2022-10-18T11:20:10.676Z,70.56
2022-10-18T11:23:15.180Z,71.24
2022-10-18T11:26:43.690Z,70.69
2022-10-18T11:29:49.880Z,71.61
2022-10-18T11:33:16.702Z,71.65
2022-10-18T11:36:25.028Z,71.08
2022-10-18T11:39:34.121Z,70.50
2022-10-18T11:42:49.711Z,71.06
2022-10-18T11:46:02.044Z,71.05
2022-10-18T11:49:19.459Z,71.59
2022-10-18T11:52:36.136Z,72.34
2022-10-18T11:55:59.226Z,72.46
2022-10-18T11:59:20.307Z,72.87
2022-10-18T12:03:04.383Z,73.18
2022-10-18T12:06:14.038Z,73.38
2022-10-18T12:09:43.981Z,72.91
2022-10-18T12:13:02.172Z,73.35
2022-10-18T12:16:05.682Z,73.25
2022-10-18T12:19:22.131Z,73.06
2022-10-18T12:22:35.875Z,73.61
2022-10-18T12:25:41.563Z,73.85
2022-10-18T12:29:03.091Z,73.64
2022-10-18T12:32:11.199Z,73.48
2022-10-18T12:35:16.656Z,74.04
2022-10-18T12:38:27.543Z,73.67
2022-10-18T12:41:34.138Z,74.19
2022-10-18T12:44:36.550Z,74.60
2022-10-18T12:47:38.648Z,74.34
2022-10-18T12:50:42.804Z,74.54
2022-10-18T12:53:51.547Z,74.88
2022-10-18T12:56:53.764Z,74.58
2022-10-18T12:59:55.832Z,74.96
2022-10-18T13:03:27.538Z,74.20
2022-10-18T13:06:58.709Z,74.24
2022-10-18T13:10:10.321Z,74.74
2022-10-18T13:13:38.767Z,75.22
2022-10-18T13:16:50.803Z,75.96
2022-10-18T13:20:20.628Z,76.25
2022-10-18T13:24:03.273Z,76.40
2022-10-18T13:27:35.970Z,76.80
2022-10-18T13:31:09.469Z,77.49
2022-10-18T13:34:35.237Z,78.04
2022-10-18T13:37:37.573Z,79.59
2022-10-18T13:40:39.959Z,82.08
2022-10-18T13:44:10.656Z,83.16
2022-10-18T13:47:14.839Z,84.04
2022-10-18T13:50:56.054Z,84.64
2022-10-18T13:54:13.368Z,84.62
2022-10-18T13:57:52.966Z,84.95
2022-10-18T14:00:59.295Z,85.99
2022-10-18T14:04:20.112Z,86.63
2022-10-18T14:07:22.416Z,86.61
2022-10-18T14:11:01.309Z,85.74
2022-10-18T14:14:09.445Z,85.75
2022-10-18T14:17:17.615Z,86.42
2022-10-18T14:20:27.369Z,87.25
2022-10-18T14:23:38.014Z,87.75
2022-10-18T14:29:42.399Z,87.95
2022-10-18T14:32:54.536Z,88.28
2022-10-18T14:36:03.364Z,89.42
2022-10-18T14:39:07.173Z,90.69
2022-10-18T14:42:21.176Z,92.03
2022-10-18T14:45:24.295Z,92.76
2022-10-18T14:48:26.511Z,92.34
2022-10-18T14:51:31.894Z,91.81
2022-10-18T14:54:38.031Z,91.96
2022-10-18T14:57:40.203Z,93.59
2022-10-18T15:00:45.087Z,94.66
2022-10-18T15:03:50.168Z,94.72
2022-10-18T15:06:52.553Z,96.26
2022-10-18T15:09:56.963Z,96.23
2022-10-18T15:13:09.727Z,96.03
2022-10-18T15:16:17.839Z,96.31
2022-10-18T15:19:36.148Z,95.16
2022-10-18T15:22:38.606Z,94.89
2022-10-18T15:25:43.858Z,93.97
2022-10-18T15:28:53.625Z,94.17
2022-10-18T15:32:06.021Z,95.25
2022-10-18T15:35:14.470Z,95.72
2022-10-18T15:38:26.467Z,95.66
2022-10-18T15:41:38.943Z,95.34
2022-10-18T15:44:51.212Z,94.85
2022-10-18T15:48:02.349Z,96.01
2022-10-18T15:51:10.237Z,96.36
2022-10-18T15:54:18.586Z,97.41
2022-10-18T15:57:21.168Z,97.80
2022-10-18T16:00:23.334Z,97.44
2022-10-18T16:03:26.189Z,97.87
2022-10-18T16:06:28.667Z,97.43
2022-10-18T16:09:31.413Z,97.78
2022-10-18T16:12:34.095Z,97.21
2022-10-18T16:15:36.964Z,98.12
2022-10-18T16:18:39.934Z,97.74
2022-10-18T16:21:42.636Z,98.03
2022-10-18T16:24:44.663Z,99.02
2022-10-18T16:27:47.120Z,98.80
2022-10-18T16:30:57.150Z,98.82
2022-10-18T16:34:00.382Z,98.70
2022-10-18T16:37:02.848Z,99.66
2022-10-18T16:40:25.353Z,100.00
2022-10-18T16:43:27.871Z,100.00
2022-10-18T16:46:34.027Z,100.00
2022-10-18T16:49:36.434Z,100.00
2022-10-18T16:52:39.234Z,100.00
2022-10-18T16:55:44.012Z,100.00
2022-10-18T16:58:48.822Z,100.00
2022-10-18T17:01:51.269Z,100.00
2022-10-18T17:04:55.471Z,100.00
2022-10-18T17:07:57.508Z,100.00
2022-10-18T17:11:00.125Z,100.00
2022-10-18T17:14:02.149Z,100.00
2022-10-18T17:17:04.574Z,100.00
2022-10-18T17:20:08.783Z,100.00
2022-10-18T17:23:11.705Z,100.00
2022-10-18T17:26:28.539Z,98.95
2022-10-18T17:29:32.923Z,98.73
2022-10-18T17:32:35.645Z,97.91
2022-10-18T17:35:38.609Z,98.47
2022-10-18T17:38:41.302Z,98.05
2022-10-18T17:41:44.038Z,97.56
2022-10-18T17:44:46.406Z,99.02
2022-10-18T17:47:49.033Z,98.65
2022-10-18T17:50:51.310Z,97.82
2022-10-18T17:53:55.959Z,97.35
2022-10-18T17:57:00.165Z,96.65
2022-10-18T18:00:08.424Z,96.65
2022-10-18T18:03:17.888Z,96.64
2022-10-18T18:06:24.483Z,98.52
2022-10-18T18:09:27.684Z,98.91
2022-10-18T18:12:35.328Z,99.00
2022-10-18T18:15:40.356Z,97.98
2022-10-18T18:18:43.546Z,97.30
2022-10-18T18:21:45.769Z,97.23
2022-10-18T18:24:48.149Z,96.83
2022-10-18T18:27:50.355Z,96.96
2022-10-18T18:30:53.375Z,97.24
2022-10-18T18:33:57.702Z,97.75
2022-10-18T18:37:01.124Z,97.19
2022-10-18T18:40:05.013Z,96.29
2022-10-18T18:43:22.861Z,96.46
2022-10-18T18:46:28.097Z,98.80
2022-10-18T18:49:32.383Z,99.79
2022-10-18T18:52:35.754Z,100.00
2022-10-18T18:55:45.300Z,100.00
2022-10-18T18:58:50.456Z,100.00
2022-10-18T19:01:53.604Z,100.00
2022-10-18T19:04:58.157Z,100.00
2022-10-18T19:08:01.710Z,100.00
2022-10-18T19:11:08.961Z,100.00
2022-10-18T19:14:12.148Z,100.00
2022-10-18T19:17:14.887Z,100.00
2022-10-18T19:20:20.355Z,100.00
2022-10-18T19:23:23.099Z,100.00
2022-10-18T19:26:39.119Z,100.00
2022-10-18T19:29:43.365Z,100.00
2022-10-18T19:32:52.951Z,100.00
2022-10-18T19:35:56.116Z,100.00
2022-10-18T19:38:59.085Z,100.00
2022-10-18T19:42:04.610Z,100.00
2022-10-18T19:45:09.088Z,100.00
2022-10-18T19:48:13.340Z,100.00
2022-10-18T19:51:20.245Z,100.00
2022-10-18T19:54:26.892Z,100.00
2022-10-18T19:57:29.686Z,100.00
2022-10-18T20:00:31.936Z,100.00
2022-10-18T20:03:35.789Z,100.00
2022-10-18T20:06:38.969Z,100.00
2022-10-18T20:09:41.612Z,100.00
2022-10-18T20:12:43.618Z,100.00
2022-10-18T20:15:50.952Z,100.00
2022-10-18T20:19:01.322Z,100.00
2022-10-18T20:22:03.654Z,100.00
2022-10-18T20:25:05.887Z,100.00
2022-10-18T20:28:08.242Z,100.00
2022-10-18T20:31:12.707Z,100.00
2022-10-18T20:34:15.063Z,100.00
2022-10-18T20:37:17.096Z,100.00
2022-10-18T20:40:19.345Z,100.00
2022-10-18T20:43:21.486Z,100.00
2022-10-18T20:46:23.765Z,100.00
2022-10-18T20:49:25.956Z,100.00
2022-10-18T20:52:28.406Z,100.00
2022-10-18T20:55:30.500Z,100.00
2022-10-18T20:58:33.806Z,100.00
2022-10-18T21:01:37.056Z,100.00
2022-10-18T21:04:42.182Z,100.00
2022-10-18T21:07:44.552Z,100.00
2022-10-18T21:10:46.919Z,100.00
2022-10-18T21:13:53.305Z,100.00
2022-10-18T21:16:55.479Z,100.00
2022-10-18T21:19:57.449Z,100.00
2022-10-18T21:22:59.658Z,100.00
2022-10-18T21:26:01.836Z,100.00
2022-10-18T21:29:06.547Z,100.00
2022-10-18T21:32:08.591Z,100.00
2022-10-18T21:35:11.413Z,100.00
2022-10-18T21:38:13.397Z,100.00
2022-10-18T21:41:16.828Z,100.00
2022-10-18T21:44:18.981Z,100.00
2022-10-18T21:47:21.224Z,100.00
2022-10-18T21:50:23.186Z,100.00
2022-10-18T21:53:25.323Z,100.00
2022-10-18T21:56:29.896Z,100.00
2022-10-18T21:59:32.198Z,100.00
2022-10-18T22:02:35.161Z,100.00
2022-10-18T22:05:37.696Z,100.00
2022-10-18T22:08:44.753Z,100.00
2022-10-18T22:11:50.301Z,100.00
2022-10-18T22:14:52.322Z,100.00
2022-10-18T22:17:54.526Z,100.00
2022-10-18T22:20:58.362Z,100.00
2022-10-18T22:24:04.618Z,100.00
2022-10-18T22:27:06.682Z,100.00
2022-10-18T22:30:09.495Z,100.00
2022-10-18T22:33:11.587Z,100.00
2022-10-18T22:36:14.094Z,100.00
2022-10-18T22:39:16.869Z,100.00
2022-10-18T22:42:19.035Z,100.00
2022-10-18T22:45:21.022Z,100.00
2022-10-18T22:48:23.187Z,100.00
2022-10-18T22:51:25.581Z,100.00
2022-10-18T22:54:27.828Z,100.00
2022-10-18T22:57:30.189Z,100.00
2022-10-18T23:00:32.447Z,100.00
2022-10-18T23:03:34.946Z,100.00
2022-10-18T23:06:37.191Z,100.00
2022-10-18T23:12:42.418Z,100.00
2022-10-18T23:15:44.487Z,100.00
2022-10-18T23:18:51.677Z,100.00
2022-10-18T23:21:53.635Z,100.00
2022-10-18T23:24:55.866Z,100.00
2022-10-18T23:27:58.036Z,100.00
2022-10-18T23:31:08.686Z,100.00
2022-10-18T23:34:10.798Z,100.00
2022-10-18T23:37:13.073Z,100.00
2022-10-18T23:40:15.231Z,100.00
2022-10-18T23:43:17.392Z,100.00
2022-10-18T23:46:20.312Z,100.00
2022-10-18T23:49:22.495Z,100.00
2022-10-18T23:52:24.863Z,100.00
2022-10-18T23:55:27.042Z,100.00
2022-10-18T23:58:30.838Z,100.00
